sensor_id;sensor_type;location;lat;lon;timestamp;pressure;altitude;pressure_sealevel;temperature;humidity
26376;BME280;30544;42.196;24.336;2023-02-22T00:01:10;98959.81;;;13.89;35.47
26376;BME280;30544;42.196;24.336;2023-02-22T00:03:49;98955.94;;;14.00;34.82
26376;BME280;30544;42.196;24.336;2023-02-22T00:06:18;98951.22;;;14.00;34.57
26376;BME280;30544;42.196;24.336;2023-02-22T00:08:47;98950.38;;;14.00;34.82
26376;BME280;30544;42.196;24.336;2023-02-22T00:11:14;98947.28;;;13.91;34.61
26376;BME280;30544;42.196;24.336;2023-02-22T00:13:43;98947.00;;;13.82;35.03
26376;BME280;30544;42.196;24.336;2023-02-22T00:16:13;98946.44;;;13.80;35.21
26376;BME280;30544;42.196;24.336;2023-02-22T00:18:40;98948.06;;;13.61;35.43
26376;BME280;30544;42.196;24.336;2023-02-22T00:21:09;98955.00;;;13.59;35.73
26376;BME280;30544;42.196;24.336;2023-02-22T00:23:39;98955.28;;;13.57;35.80
26376;BME280;30544;42.196;24.336;2023-02-22T00:26:08;98961.69;;;13.52;35.49
26376;BME280;30544;42.196;24.336;2023-02-22T00:28:35;98958.66;;;13.64;35.47
26376;BME280;30544;42.196;24.336;2023-02-22T00:31:04;98966.97;;;13.49;36.29
26376;BME280;30544;42.196;24.336;2023-02-22T00:33:31;98973.31;;;13.34;36.26
26376;BME280;30544;42.196;24.336;2023-02-22T00:36:01;98975.31;;;13.02;37.37
26376;BME280;30544;42.196;24.336;2023-02-22T00:38:28;98981.22;;;12.68;37.95
26376;BME280;30544;42.196;24.336;2023-02-22T00:40:54;98984.72;;;12.53;37.76
26376;BME280;30544;42.196;24.336;2023-02-22T00:43:21;98993.97;;;12.27;38.42
26376;BME280;30544;42.196;24.336;2023-02-22T00:45:49;98991.56;;;12.09;38.41
26376;BME280;30544;42.196;24.336;2023-02-22T00:48:17;99000.16;;;11.80;38.88
26376;BME280;30544;42.196;24.336;2023-02-22T00:50:44;98994.72;;;11.90;39.13
26376;BME280;30544;42.196;24.336;2023-02-22T00:53:13;98996.03;;;11.83;38.98
26376;BME280;30544;42.196;24.336;2023-02-22T00:55:40;99002.75;;;11.65;39.75
26376;BME280;30544;42.196;24.336;2023-02-22T00:58:07;98998.41;;;11.52;40.15
26376;BME280;30544;42.196;24.336;2023-02-22T01:00:36;98995.06;;;11.50;39.99
26376;BME280;30544;42.196;24.336;2023-02-22T01:03:03;98991.50;;;11.33;40.07
26376;BME280;30544;42.196;24.336;2023-02-22T01:05:32;98985.97;;;11.33;40.16
26376;BME280;30544;42.196;24.336;2023-02-22T01:08:00;98984.22;;;11.27;41.22
26376;BME280;30544;42.196;24.336;2023-02-22T01:10:29;98986.91;;;11.22;41.13
26376;BME280;30544;42.196;24.336;2023-02-22T01:12:57;98986.22;;;11.31;41.11
26376;BME280;30544;42.196;24.336;2023-02-22T01:15:26;98983.25;;;11.16;40.92
26376;BME280;30544;42.196;24.336;2023-02-22T01:17:55;98980.66;;;11.09;41.19
26376;BME280;30544;42.196;24.336;2023-02-22T01:20:24;98982.84;;;11.07;41.91
26376;BME280;30544;42.196;24.336;2023-02-22T01:22:54;98988.00;;;11.21;41.31
26376;BME280;30544;42.196;24.336;2023-02-22T01:25:23;98990.63;;;11.27;41.38
26376;BME280;30544;42.196;24.336;2023-02-22T01:27:50;98987.75;;;11.22;41.05
26376;BME280;30544;42.196;24.336;2023-02-22T01:30:20;98986.91;;;11.22;41.31
26376;BME280;30544;42.196;24.336;2023-02-22T01:32:47;98992.88;;;11.30;40.42
26376;BME280;30544;42.196;24.336;2023-02-22T01:35:21;98984.22;;;11.27;40.76
26376;BME280;30544;42.196;24.336;2023-02-22T01:37:48;98981.75;;;11.52;40.17
26376;BME280;30544;42.196;24.336;2023-02-22T01:40:18;98985.66;;;11.78;39.17
26376;BME280;30544;42.196;24.336;2023-02-22T01:42:47;98986.97;;;11.70;39.22
26376;BME280;30544;42.196;24.336;2023-02-22T01:45:39;98995.88;;;11.72;39.01
26376;BME280;30544;42.196;24.336;2023-02-22T01:48:11;98988.59;;;11.66;39.80
26376;BME280;30544;42.196;24.336;2023-02-22T01:50:41;98984.75;;;11.72;39.22
26376;BME280;30544;42.196;24.336;2023-02-22T01:53:11;98980.53;;;11.65;39.17
26376;BME280;30544;42.196;24.336;2023-02-22T01:55:41;98988.34;;;11.46;40.03
26376;BME280;30544;42.196;24.336;2023-02-22T01:58:09;98988.63;;;11.44;40.08
26376;BME280;30544;42.196;24.336;2023-02-22T02:00:36;98984.34;;;11.37;40.14
26376;BME280;30544;42.196;24.336;2023-02-22T02:03:07;98984.84;;;11.34;40.38
26376;BME280;30544;42.196;24.336;2023-02-22T02:05:35;98973.19;;;11.32;40.24
26376;BME280;30544;42.196;24.336;2023-02-22T02:08:13;98976.47;;;11.29;40.61
26376;BME280;30544;42.196;24.336;2023-02-22T02:10:43;98974.13;;;11.21;41.07
26376;BME280;30544;42.196;24.336;2023-02-22T02:13:10;98981.31;;;11.17;41.33
26376;BME280;30544;42.196;24.336;2023-02-22T02:15:37;98975.50;;;11.18;41.00
26376;BME280;30544;42.196;24.336;2023-02-22T02:18:06;98981.03;;;11.18;40.57
26376;BME280;30544;42.196;24.336;2023-02-22T02:20:39;98976.34;;;11.19;40.79
26376;BME280;30544;42.196;24.336;2023-02-22T02:23:22;98979.06;;;11.13;41.38
26376;BME280;30544;42.196;24.336;2023-02-22T02:26:20;98966.63;;;10.99;41.29
26376;BME280;30544;42.196;24.336;2023-02-22T02:32:09;98971.13;;;10.83;41.86
26376;BME280;30544;42.196;24.336;2023-02-22T02:34:46;98976.09;;;10.81;41.45
26376;BME280;30544;42.196;24.336;2023-02-22T02:37:20;98982.16;;;10.78;42.03
26376;BME280;30544;42.196;24.336;2023-02-22T02:39:55;98979.47;;;10.67;42.19
26376;BME280;30544;42.196;24.336;2023-02-22T02:42:32;98984.38;;;10.60;42.72
26376;BME280;30544;42.196;24.336;2023-02-22T02:45:06;98987.06;;;10.54;42.13
26376;BME280;30544;42.196;24.336;2023-02-22T02:47:39;98988.59;;;10.45;43.00
26376;BME280;30544;42.196;24.336;2023-02-22T02:50:10;98981.09;;;10.29;42.85
26376;BME280;30544;42.196;24.336;2023-02-22T02:52:40;98985.03;;;10.33;43.69
26376;BME280;30544;42.196;24.336;2023-02-22T02:55:08;98988.09;;;10.20;43.11
26376;BME280;30544;42.196;24.336;2023-02-22T02:57:36;98997.34;;;10.09;43.53
26376;BME280;30544;42.196;24.336;2023-02-22T03:00:06;98987.63;;;9.78;45.35
26376;BME280;30544;42.196;24.336;2023-02-22T03:02:57;98992.50;;;9.87;44.33
26376;BME280;30544;42.196;24.336;2023-02-22T03:05:43;98992.19;;;9.84;45.72
26376;BME280;30544;42.196;24.336;2023-02-22T03:08:21;98991.50;;;9.77;45.25
26376;BME280;30544;42.196;24.336;2023-02-22T03:10:58;98996.28;;;9.81;44.62
26376;BME280;30544;42.196;24.336;2023-02-22T03:13:39;98988.66;;;9.88;44.87
26376;BME280;30544;42.196;24.336;2023-02-22T03:16:14;98987.56;;;9.89;44.91
26376;BME280;30544;42.196;24.336;2023-02-22T03:18:49;98990.53;;;10.00;44.76
26376;BME280;30544;42.196;24.336;2023-02-22T03:21:24;98993.38;;;10.05;44.22
26376;BME280;30544;42.196;24.336;2023-02-22T03:23:59;98995.69;;;10.08;44.30
26376;BME280;30544;42.196;24.336;2023-02-22T03:26:34;99003.28;;;10.01;44.10
26376;BME280;30544;42.196;24.336;2023-02-22T03:29:02;99002.25;;;10.35;44.11
26376;BME280;30544;42.196;24.336;2023-02-22T03:31:35;99001.84;;;10.60;43.71
26376;BME280;30544;42.196;24.336;2023-02-22T03:34:07;99002.69;;;10.61;43.08
26376;BME280;30544;42.196;24.336;2023-02-22T03:36:40;99009.22;;;10.71;43.72
26376;BME280;30544;42.196;24.336;2023-02-22T03:39:11;99009.72;;;10.85;43.54
26376;BME280;30544;42.196;24.336;2023-02-22T03:41:43;98997.19;;;10.82;42.93
26376;BME280;30544;42.196;24.336;2023-02-22T03:44:17;99005.53;;;10.82;42.49
26376;BME280;30544;42.196;24.336;2023-02-22T03:46:47;98999.91;;;10.77;43.03
26376;BME280;30544;42.196;24.336;2023-02-22T03:49:24;99004.69;;;10.65;43.80
26376;BME280;30544;42.196;24.336;2023-02-22T03:51:55;99000.00;;;10.66;42.90
26376;BME280;30544;42.196;24.336;2023-02-22T03:54:22;99007.66;;;10.59;43.77
26376;BME280;30544;42.196;24.336;2023-02-22T03:56:52;99004.97;;;10.64;43.52
26376;BME280;30544;42.196;24.336;2023-02-22T03:59:21;99009.53;;;10.75;43.57
26376;BME280;30544;42.196;24.336;2023-02-22T04:01:50;99007.22;;;10.67;43.12
26376;BME280;30544;42.196;24.336;2023-02-22T04:04:18;99011.31;;;10.81;43.25
26376;BME280;30544;42.196;24.336;2023-02-22T04:06:46;99012.59;;;10.57;43.70
26376;BME280;30544;42.196;24.336;2023-02-22T04:09:14;99014.97;;;10.65;43.21
26376;BME280;30544;42.196;24.336;2023-02-22T04:11:41;99015.09;;;10.58;43.25
26376;BME280;30544;42.196;24.336;2023-02-22T04:14:08;99017.56;;;10.54;43.82
26376;BME280;30544;42.196;24.336;2023-02-22T04:16:35;99017.66;;;10.60;44.02
26376;BME280;30544;42.196;24.336;2023-02-22T04:19:01;99013.22;;;10.59;43.60
26376;BME280;30544;42.196;24.336;2023-02-22T04:21:30;99017.88;;;10.58;43.19
26376;BME280;30544;42.196;24.336;2023-02-22T04:23:56;99011.75;;;10.56;43.50
26376;BME280;30544;42.196;24.336;2023-02-22T04:26:23;99009.91;;;10.62;44.14
26376;BME280;30544;42.196;24.336;2023-02-22T04:28:50;99009.50;;;10.53;44.09
26376;BME280;30544;42.196;24.336;2023-02-22T04:31:17;99001.50;;;10.57;43.82
26376;BME280;30544;42.196;24.336;2023-02-22T04:33:43;99018.06;;;10.51;44.25
26376;BME280;30544;42.196;24.336;2023-02-22T04:36:10;99010.91;;;10.55;43.95
26376;BME280;30544;42.196;24.336;2023-02-22T04:38:41;99019.47;;;10.71;43.27
26376;BME280;30544;42.196;24.336;2023-02-22T04:41:08;99014.63;;;10.78;43.75
26376;BME280;30544;42.196;24.336;2023-02-22T04:43:35;99012.25;;;10.70;43.31
26376;BME280;30544;42.196;24.336;2023-02-22T04:46:02;99011.59;;;10.79;43.26
26376;BME280;30544;42.196;24.336;2023-02-22T04:48:30;99015.72;;;10.77;42.84
26376;BME280;30544;42.196;24.336;2023-02-22T04:50:57;99016.28;;;10.79;43.06
26376;BME280;30544;42.196;24.336;2023-02-22T04:53:23;99017.28;;;10.73;42.70
26376;BME280;30544;42.196;24.336;2023-02-22T04:55:51;99005.94;;;10.74;43.63
26376;BME280;30544;42.196;24.336;2023-02-22T04:58:18;99013.50;;;10.79;43.36
26376;BME280;30544;42.196;24.336;2023-02-22T05:00:45;99013.06;;;10.87;42.93
26376;BME280;30544;42.196;24.336;2023-02-22T05:03:12;99011.94;;;10.66;43.34
26376;BME280;30544;42.196;24.336;2023-02-22T05:05:39;99017.47;;;10.83;43.12
26376;BME280;30544;42.196;24.336;2023-02-22T05:08:06;99018.38;;;10.72;43.05
26376;BME280;30544;42.196;24.336;2023-02-22T05:10:33;99024.16;;;10.87;42.87
26376;BME280;30544;42.196;24.336;2023-02-22T05:13:01;99022.66;;;10.96;42.81
26376;BME280;30544;42.196;24.336;2023-02-22T05:15:28;99016.63;;;11.21;41.43
26376;BME280;30544;42.196;24.336;2023-02-22T05:17:54;99010.44;;;11.36;41.87
26376;BME280;30544;42.196;24.336;2023-02-22T05:20:25;99024.66;;;11.61;41.25
26376;BME280;30544;42.196;24.336;2023-02-22T05:22:54;99026.91;;;11.64;41.18
26376;BME280;30544;42.196;24.336;2023-02-22T05:25:21;99017.94;;;11.79;40.51
26376;BME280;30544;42.196;24.336;2023-02-22T05:27:50;99024.81;;;11.98;40.74
26376;BME280;30544;42.196;24.336;2023-02-22T05:30:19;99036.03;;;12.09;40.69
26376;BME280;30544;42.196;24.336;2023-02-22T05:32:48;99031.16;;;12.21;39.78
26376;BME280;30544;42.196;24.336;2023-02-22T05:35:15;99030.06;;;12.22;39.35
26376;BME280;30544;42.196;24.336;2023-02-22T05:37:41;99030.03;;;12.49;38.48
26376;BME280;30544;42.196;24.336;2023-02-22T05:40:09;99039.94;;;12.67;38.53
26376;BME280;30544;42.196;24.336;2023-02-22T05:42:36;99034.97;;;12.74;38.15
26376;BME280;30544;42.196;24.336;2023-02-22T05:45:03;99034.25;;;12.88;36.84
26376;BME280;30544;42.196;24.336;2023-02-22T05:47:32;99034.91;;;13.01;36.98
26376;BME280;30544;42.196;24.336;2023-02-22T05:49:59;99031.25;;;12.95;36.96
26376;BME280;30544;42.196;24.336;2023-02-22T05:52:26;99042.06;;;12.91;36.93
26376;BME280;30544;42.196;24.336;2023-02-22T05:54:53;99039.09;;;12.66;37.68
26376;BME280;30544;42.196;24.336;2023-02-22T05:57:20;99044.66;;;12.66;38.29
26376;BME280;30544;42.196;24.336;2023-02-22T05:59:47;99052.75;;;12.41;39.22
26376;BME280;30544;42.196;24.336;2023-02-22T06:02:13;99052.81;;;12.46;39.75
26376;BME280;30544;42.196;24.336;2023-02-22T06:04:44;99056.00;;;12.27;40.00
26376;BME280;30544;42.196;24.336;2023-02-22T06:07:12;99057.19;;;12.37;40.01
26376;BME280;30544;42.196;24.336;2023-02-22T06:09:39;99057.81;;;12.17;40.33
26376;BME280;30544;42.196;24.336;2023-02-22T06:12:07;99060.50;;;12.33;40.45
26376;BME280;30544;42.196;24.336;2023-02-22T06:14:34;99066.66;;;12.41;40.16
26376;BME280;30544;42.196;24.336;2023-02-22T06:17:01;99063.41;;;12.49;39.62
26376;BME280;30544;42.196;24.336;2023-02-22T06:19:29;99069.59;;;12.56;39.46
26376;BME280;30544;42.196;24.336;2023-02-22T06:21:57;99068.72;;;12.82;38.76
26376;BME280;30544;42.196;24.336;2023-02-22T06:24:27;99066.09;;;13.03;38.55
26376;BME280;30544;42.196;24.336;2023-02-22T06:26:55;99066.22;;;13.18;38.19
26376;BME280;30544;42.196;24.336;2023-02-22T06:29:23;99065.22;;;13.34;37.89
26376;BME280;30544;42.196;24.336;2023-02-22T06:31:50;99059.09;;;13.32;38.22
26376;BME280;30544;42.196;24.336;2023-02-22T06:34:17;99068.75;;;13.72;37.74
26376;BME280;30544;42.196;24.336;2023-02-22T06:36:46;99057.63;;;13.77;37.28
26376;BME280;30544;42.196;24.336;2023-02-22T06:39:15;99062.03;;;13.68;37.35
26376;BME280;30544;42.196;24.336;2023-02-22T06:41:44;99066.56;;;13.79;36.92
26376;BME280;30544;42.196;24.336;2023-02-22T06:44:12;99075.34;;;14.13;36.05
26376;BME280;30544;42.196;24.336;2023-02-22T06:46:39;99066.44;;;14.36;35.90
26376;BME280;30544;42.196;24.336;2023-02-22T06:49:12;99072.31;;;14.40;35.65
26376;BME280;30544;42.196;24.336;2023-02-22T06:51:39;99065.13;;;14.54;35.48
26376;BME280;30544;42.196;24.336;2023-02-22T06:54:06;99070.66;;;14.44;35.91
26376;BME280;30544;42.196;24.336;2023-02-22T06:56:34;99068.50;;;14.61;36.00
26376;BME280;30544;42.196;24.336;2023-02-22T06:59:01;99074.34;;;14.70;35.22
26376;BME280;30544;42.196;24.336;2023-02-22T07:01:28;99067.91;;;14.90;35.28
26376;BME280;30544;42.196;24.336;2023-02-22T07:03:55;99074.00;;;15.48;34.98
26376;BME280;30544;42.196;24.336;2023-02-22T07:06:22;99077.34;;;15.40;35.02
26376;BME280;30544;42.196;24.336;2023-02-22T07:08:48;99070.91;;;15.44;35.30
26376;BME280;30544;42.196;24.336;2023-02-22T07:11:16;99071.81;;;15.04;34.94
26376;BME280;30544;42.196;24.336;2023-02-22T07:13:44;99070.16;;;15.13;35.05
26376;BME280;30544;42.196;24.336;2023-02-22T07:16:11;99069.84;;;15.30;34.95
26376;BME280;30544;42.196;24.336;2023-02-22T07:18:37;99068.94;;;15.65;34.93
26376;BME280;30544;42.196;24.336;2023-02-22T07:21:04;99070.38;;;15.37;33.93
26376;BME280;30544;42.196;24.336;2023-02-22T07:23:32;99061.66;;;15.69;33.95
26376;BME280;30544;42.196;24.336;2023-02-22T07:25:59;99070.53;;;15.86;34.15
26376;BME280;30544;42.196;24.336;2023-02-22T07:28:26;99067.56;;;15.62;33.98
26376;BME280;30544;42.196;24.336;2023-02-22T07:30:54;99067.91;;;16.15;33.70
26376;BME280;30544;42.196;24.336;2023-02-22T07:33:21;99065.28;;;16.29;33.59
26376;BME280;30544;42.196;24.336;2023-02-22T07:35:49;99065.69;;;16.07;33.78
26376;BME280;30544;42.196;24.336;2023-02-22T07:38:17;99067.09;;;16.54;32.76
26376;BME280;30544;42.196;24.336;2023-02-22T07:40:44;99057.50;;;16.65;32.74
26376;BME280;30544;42.196;24.336;2023-02-22T07:43:14;99060.03;;;16.67;32.56
26376;BME280;30544;42.196;24.336;2023-02-22T07:45:41;99067.22;;;16.78;32.12
26376;BME280;30544;42.196;24.336;2023-02-22T07:48:10;99053.25;;;17.07;31.91
26376;BME280;30544;42.196;24.336;2023-02-22T07:50:37;99064.16;;;17.08;31.86
26376;BME280;30544;42.196;24.336;2023-02-22T07:53:07;99060.09;;;17.25;32.57
26376;BME280;30544;42.196;24.336;2023-02-22T07:55:35;99054.59;;;17.14;31.95
26376;BME280;30544;42.196;24.336;2023-02-22T07:58:07;99050.81;;;17.53;31.83
26376;BME280;30544;42.196;24.336;2023-02-22T08:00:36;99052.44;;;17.59;31.18
26376;BME280;30544;42.196;24.336;2023-02-22T08:03:05;99044.94;;;17.26;31.70
26376;BME280;30544;42.196;24.336;2023-02-22T08:05:35;99041.88;;;17.51;31.04
26376;BME280;30544;42.196;24.336;2023-02-22T08:08:02;99037.75;;;17.67;31.90
26376;BME280;30544;42.196;24.336;2023-02-22T08:10:30;99041.50;;;18.06;31.02
26376;BME280;30544;42.196;24.336;2023-02-22T08:12:58;99032.69;;;17.93;30.97
26376;BME280;30544;42.196;24.336;2023-02-22T08:15:27;99036.94;;;17.91;31.25
26376;BME280;30544;42.196;24.336;2023-02-22T08:17:55;99029.63;;;18.51;30.74
26376;BME280;30544;42.196;24.336;2023-02-22T08:20:22;99026.13;;;18.41;30.88
26376;BME280;30544;42.196;24.336;2023-02-22T08:22:50;99020.91;;;18.34;30.88
26376;BME280;30544;42.196;24.336;2023-02-22T08:25:19;99018.78;;;18.82;30.33
26376;BME280;30544;42.196;24.336;2023-02-22T08:27:47;99022.97;;;18.66;30.22
26376;BME280;30544;42.196;24.336;2023-02-22T08:30:15;99011.31;;;18.91;30.34
26376;BME280;30544;42.196;24.336;2023-02-22T08:32:44;99009.16;;;18.70;29.81
26376;BME280;30544;42.196;24.336;2023-02-22T08:35:11;99012.69;;;18.75;29.70
26376;BME280;30544;42.196;24.336;2023-02-22T08:37:41;99006.69;;;19.28;29.16
26376;BME280;30544;42.196;24.336;2023-02-22T08:40:10;99000.59;;;19.53;28.62
26376;BME280;30544;42.196;24.336;2023-02-22T08:42:38;99000.00;;;19.84;27.80
26376;BME280;30544;42.196;24.336;2023-02-22T08:45:05;98996.13;;;19.80;27.81
26376;BME280;30544;42.196;24.336;2023-02-22T08:47:32;99000.19;;;19.74;27.90
26376;BME280;30544;42.196;24.336;2023-02-22T08:49:59;98992.16;;;19.81;28.02
26376;BME280;30544;42.196;24.336;2023-02-22T08:52:26;98992.25;;;20.03;27.45
26376;BME280;30544;42.196;24.336;2023-02-22T08:54:53;98991.28;;;20.22;27.39
26376;BME280;30544;42.196;24.336;2023-02-22T08:57:23;98990.31;;;20.26;27.47
26376;BME280;30544;42.196;24.336;2023-02-22T08:59:50;98990.78;;;20.06;27.31
26376;BME280;30544;42.196;24.336;2023-02-22T09:02:20;98981.56;;;20.28;27.20
26376;BME280;30544;42.196;24.336;2023-02-22T09:04:47;98987.84;;;20.11;27.49
26376;BME280;30544;42.196;24.336;2023-02-22T09:07:15;98984.97;;;20.52;27.16
26376;BME280;30544;42.196;24.336;2023-02-22T09:09:42;98978.72;;;20.41;27.57
26376;BME280;30544;42.196;24.336;2023-02-22T09:12:09;98978.63;;;20.33;27.31
26376;BME280;30544;42.196;24.336;2023-02-22T09:14:37;98978.91;;;20.45;27.20
26376;BME280;30544;42.196;24.336;2023-02-22T09:17:04;98972.25;;;20.41;27.27
26376;BME280;30544;42.196;24.336;2023-02-22T09:19:31;98976.69;;;20.78;26.90
26376;BME280;30544;42.196;24.336;2023-02-22T09:21:59;98981.44;;;20.69;27.00
26376;BME280;30544;42.196;24.336;2023-02-22T09:24:26;98966.88;;;20.98;26.55
26376;BME280;30544;42.196;24.336;2023-02-22T09:26:53;98965.34;;;20.92;26.72
26376;BME280;30544;42.196;24.336;2023-02-22T09:29:20;98961.97;;;21.35;26.78
26376;BME280;30544;42.196;24.336;2023-02-22T09:31:51;98956.63;;;21.02;26.38
26376;BME280;30544;42.196;24.336;2023-02-22T09:34:19;98958.16;;;21.39;26.18
26376;BME280;30544;42.196;24.336;2023-02-22T09:36:48;98958.41;;;20.98;26.27
26376;BME280;30544;42.196;24.336;2023-02-22T09:39:17;98957.72;;;21.23;26.19
26376;BME280;30544;42.196;24.336;2023-02-22T09:41:50;98956.41;;;20.98;26.01
26376;BME280;30544;42.196;24.336;2023-02-22T09:44:26;98959.34;;;20.85;25.86
26376;BME280;30544;42.196;24.336;2023-02-22T09:46:56;98951.63;;;20.99;26.47
26376;BME280;30544;42.196;24.336;2023-02-22T09:49:28;98954.22;;;21.49;25.43
26376;BME280;30544;42.196;24.336;2023-02-22T09:52:00;98944.88;;;21.09;25.82
26376;BME280;30544;42.196;24.336;2023-02-22T09:54:32;98949.66;;;20.77;26.49
26376;BME280;30544;42.196;24.336;2023-02-22T09:57:04;98942.41;;;21.16;25.41
26376;BME280;30544;42.196;24.336;2023-02-22T09:59:39;98944.13;;;21.17;26.02
26376;BME280;30544;42.196;24.336;2023-02-22T10:02:18;98935.50;;;21.22;25.55
26376;BME280;30544;42.196;24.336;2023-02-22T10:04:51;98924.56;;;21.60;25.25
26376;BME280;30544;42.196;24.336;2023-02-22T10:07:25;98933.63;;;21.40;25.17
26376;BME280;30544;42.196;24.336;2023-02-22T10:09:54;98933.94;;;21.38;25.14
26376;BME280;30544;42.196;24.336;2023-02-22T10:12:28;98928.59;;;21.28;25.31
26376;BME280;30544;42.196;24.336;2023-02-22T10:15:27;98922.19;;;21.45;24.80
26376;BME280;30544;42.196;24.336;2023-02-22T10:18:06;98924.44;;;21.25;25.12
26376;BME280;30544;42.196;24.336;2023-02-22T10:20:49;98929.25;;;21.25;25.41
26376;BME280;30544;42.196;24.336;2023-02-22T10:23:22;98907.56;;;21.34;25.14
26376;BME280;30544;42.196;24.336;2023-02-22T10:25:58;98899.59;;;21.36;25.19
26376;BME280;30544;42.196;24.336;2023-02-22T10:28:34;98888.91;;;21.73;25.43
26376;BME280;30544;42.196;24.336;2023-02-22T10:31:06;98894.69;;;21.59;24.55
26376;BME280;30544;42.196;24.336;2023-02-22T10:33:38;98892.16;;;21.40;24.74
26376;BME280;30544;42.196;24.336;2023-02-22T10:36:08;98880.56;;;21.59;25.24
26376;BME280;30544;42.196;24.336;2023-02-22T10:38:44;98875.56;;;21.39;24.26
26376;BME280;30544;42.196;24.336;2023-02-22T10:41:20;98861.19;;;21.83;24.48
26376;BME280;30544;42.196;24.336;2023-02-22T10:43:49;98858.19;;;21.80;24.44
26376;BME280;30544;42.196;24.336;2023-02-22T10:46:17;98861.19;;;21.83;24.09
26376;BME280;30544;42.196;24.336;2023-02-22T10:48:50;98853.38;;;21.80;23.93
26376;BME280;30544;42.196;24.336;2023-02-22T10:51:18;98853.38;;;21.72;24.23
26376;BME280;30544;42.196;24.336;2023-02-22T10:53:57;98850.91;;;21.70;24.15
26376;BME280;30544;42.196;24.336;2023-02-22T10:56:25;98846.28;;;22.09;23.72
26376;BME280;30544;42.196;24.336;2023-02-22T10:58:54;98841.31;;;22.06;23.56
26376;BME280;30544;42.196;24.336;2023-02-22T11:01:33;98844.91;;;21.54;23.80
26376;BME280;30544;42.196;24.336;2023-02-22T11:04:10;98832.50;;;22.16;23.77
26376;BME280;30544;42.196;24.336;2023-02-22T11:06:40;98826.94;;;22.63;23.90
26376;BME280;30544;42.196;24.336;2023-02-22T11:09:13;98832.09;;;22.69;23.58
26376;BME280;30544;42.196;24.336;2023-02-22T11:11:44;98831.66;;;22.33;23.88
26376;BME280;30544;42.196;24.336;2023-02-22T11:14:13;98816.19;;;21.96;23.11
26376;BME280;30544;42.196;24.336;2023-02-22T11:16:51;98818.03;;;21.91;23.23
26376;BME280;30544;42.196;24.336;2023-02-22T11:19:21;98812.09;;;22.19;22.91
26376;BME280;30544;42.196;24.336;2023-02-22T11:21:51;98811.19;;;22.53;22.64
26376;BME280;30544;42.196;24.336;2023-02-22T11:24:21;98807.56;;;22.27;22.97
26376;BME280;30544;42.196;24.336;2023-02-22T11:26:54;98812.22;;;22.14;22.68
26376;BME280;30544;42.196;24.336;2023-02-22T11:29:26;98805.88;;;22.43;22.99
26376;BME280;30544;42.196;24.336;2023-02-22T11:31:56;98807.41;;;22.14;22.92
26376;BME280;30544;42.196;24.336;2023-02-22T11:34:28;98805.75;;;22.22;23.06
26376;BME280;30544;42.196;24.336;2023-02-22T11:36:56;98802.22;;;22.51;22.71
26376;BME280;30544;42.196;24.336;2023-02-22T11:39:40;98799.28;;;22.13;23.13
26376;BME280;30544;42.196;24.336;2023-02-22T11:42:19;98797.88;;;22.54;23.25
26376;BME280;30544;42.196;24.336;2023-02-22T11:44:48;98783.63;;;22.33;23.15
26376;BME280;30544;42.196;24.336;2023-02-22T11:47:23;98787.00;;;22.09;23.68
26376;BME280;30544;42.196;24.336;2023-02-22T11:49:51;98787.75;;;22.52;23.41
26376;BME280;30544;42.196;24.336;2023-02-22T11:52:23;98778.00;;;22.24;23.05
26376;BME280;30544;42.196;24.336;2023-02-22T11:55:03;98774.75;;;22.69;22.86
26376;BME280;30544;42.196;24.336;2023-02-22T11:57:43;98779.38;;;22.18;23.00
26376;BME280;30544;42.196;24.336;2023-02-22T12:00:19;98773.38;;;22.02;23.64
26376;BME280;30544;42.196;24.336;2023-02-22T12:03:16;98767.66;;;22.45;22.99
26376;BME280;30544;42.196;24.336;2023-02-22T12:05:59;98759.81;;;22.60;23.27
26376;BME280;30544;42.196;24.336;2023-02-22T12:08:37;98764.09;;;22.66;22.83
26376;BME280;30544;42.196;24.336;2023-02-22T12:11:13;98758.97;;;22.59;22.75
26376;BME280;30544;42.196;24.336;2023-02-22T12:14:07;98752.06;;;22.31;23.00
26376;BME280;30544;42.196;24.336;2023-02-22T12:16:56;98756.72;;;22.35;23.37
26376;BME280;30544;42.196;24.336;2023-02-22T12:19:28;98760.38;;;22.27;22.77
26376;BME280;30544;42.196;24.336;2023-02-22T12:22:01;98753.53;;;22.45;23.19
26376;BME280;30544;42.196;24.336;2023-02-22T12:24:34;98751.81;;;22.62;22.41
26376;BME280;30544;42.196;24.336;2023-02-22T12:27:06;98736.38;;;22.59;23.11
26376;BME280;30544;42.196;24.336;2023-02-22T12:29:38;98739.03;;;22.56;23.05
26376;BME280;30544;42.196;24.336;2023-02-22T12:32:11;98738.22;;;22.46;22.84
26376;BME280;30544;42.196;24.336;2023-02-22T12:34:42;98737.06;;;22.94;22.92
26376;BME280;30544;42.196;24.336;2023-02-22T12:37:18;98729.94;;;22.41;22.82
26376;BME280;30544;42.196;24.336;2023-02-22T12:39:53;98734.56;;;22.55;23.28
26376;BME280;30544;42.196;24.336;2023-02-22T12:42:27;98729.81;;;22.76;22.59
26376;BME280;30544;42.196;24.336;2023-02-22T12:44:59;98727.63;;;22.90;22.79
26376;BME280;30544;42.196;24.336;2023-02-22T12:47:31;98724.00;;;23.10;22.67
26376;BME280;30544;42.196;24.336;2023-02-22T12:50:06;98724.88;;;23.02;22.14
26376;BME280;30544;42.196;24.336;2023-02-22T12:52:45;98728.63;;;22.77;22.27
26376;BME280;30544;42.196;24.336;2023-02-22T12:55:17;98731.19;;;22.99;21.96
26376;BME280;30544;42.196;24.336;2023-02-22T12:57:49;98721.34;;;22.67;22.04
26376;BME280;30544;42.196;24.336;2023-02-22T13:00:20;98720.47;;;22.84;22.42
26376;BME280;30544;42.196;24.336;2023-02-22T13:02:56;98716.16;;;22.87;22.31
26376;BME280;30544;42.196;24.336;2023-02-22T13:05:24;98712.34;;;22.83;22.10
26376;BME280;30544;42.196;24.336;2023-02-22T13:08:13;98709.50;;;23.12;22.35
26376;BME280;30544;42.196;24.336;2023-02-22T13:11:11;98707.97;;;22.94;22.05